NCAR-RAP Real-Time Weather Data

Output produced by METARs form (12 August 2020  18:31 UTC)
found at http://weather.rap.ucar.edu/surface/
 
KRAP 121752Z 20005KT 10SM CLR 33/10 A2981 RMK AO2 SLP057 T03330100 10333 20150 58015 $
KRAP 121652Z 15007KT 10SM CLR 29/12 A2983 RMK AO2 SLP068 T02940117 $
KRAP 121552Z 20008KT 10SM CLR 26/13 A2984 RMK AO2 SLP077 T02560133 $
KRAP 121452Z 12010KT 10SM CLR 23/14 A2985 RMK AO2 SLP084 T02280139 58006 $
KRAP 121352Z 13010KT 10SM CLR 19/14 A2986 RMK AO2 SLP088 T01940144 $
KRAP 121252Z 09004KT 10SM CLR 16/14 A2987 RMK AO2 SLP092 T01560144 $
KRAP 121152Z 15004KT 10SM CLR 16/13 A2987 RMK AO2 SLP090 70002 T01560133 10233 20156 53001 $
KRAP 121052Z AUTO 13011KT 10SM CLR 16/15 A2987 RMK AO2 SLP087 T01610150 TSNO $
KRAP 120952Z AUTO 12013KT 10SM CLR 19/11 A2986 RMK AO2 SLP082 T01890111 TSNO $
KRAP 120852Z AUTO 10011KT 10SM CLR 20/09 A2987 RMK AO2 SLP083 T02000094 58005 $
KRAP 120752Z AUTO 15012G22KT 10SM CLR 22/09 A2988 RMK AO2 SLP087 T02170094 $
KRAP 120652Z AUTO 18011KT 10SM CLR 22/09 A2988 RMK AO2 SLP086 T02220089 403060156 $
KRAP 120552Z AUTO 19010KT 10SM CLR 22/09 A2988 RMK AO2 SLP088 60002 T02220089 10278 20189 $
KRAP 120452Z AUTO 19010KT 10SM CLR 22/12 A2988 RMK AO2 SLP090 T02170117 $
KRAP 120352Z 24007KT 10SM CLR 21/14 A2987 RMK AO2 SLP086 T02060139 $
KRAP 120252Z 00000KT 10SM CLR 20/14 A2985 RMK AO2 SLP082 60002 T02000144 53015
KRAP 120152Z 12013G23KT 10SM CLR 23/16 A2980 RMK AO2 LTG DSNT E AND SE RAE21 SLP065 P0001 T02280156
KRAP 120141Z 11013KT 10SM CLR 24/16 A2980 RMK AO2 LTG DSNT E AND SE RAE21 P0001 T02390161
KRAP 120102Z 13005G14KT 10SM VCTS -RA FEW046 SCT095 BKN120 26/18 A2979 RMK AO2 LTG DSNT E-S P0000 T02610183
KRAP 120052Z 33010KT 9SM -RA FEW044 SCT085 BKN110 27/14 A2977 RMK AO2 PK WND 12029/0052 LTG DSNT E-S RAE01B15 PRESFR SLP054 P0001 T02720139
KRAP 120047Z 9SM -RA FEW046 BKN090 OVC110 28/10 A2980 RMK AO2 LTG DSNT E-S RAE01B15 P0001
KRAP 120032Z 33008KT 10SM VCTS -RA FEW044 SCT080 BKN110 26/20 A2983 RMK AO2 LTG DSNT SE RAE01B15 P0001 T02560200
KRAP 120017Z 00000KT 9SM -RA FEW055 SCT075 SCT110 27/19 A2982 RMK AO2 LTG DSNT W RAE01B15 P0000 T02720189
KRAP 120002Z 05009KT 10SM VCTS CLR 28/18 A2981 RMK AO2 LTG DSNT W RAE01 P0000 T02780183
KRAP 112352Z 06007KT 10SM -RA FEW033 FEW070 28/18 A2982 RMK AO2 LTG DSNT W RAB51 SLP071 P0000 60000 T02780183 10306 20272 56016
KRAP 112252Z 09009KT 10SM CLR 31/18 A2983 RMK AO2 SLP071 T03060183
KRAP 112152Z 12008KT 10SM CLR 29/18 A2985 RMK AO2 SLP078 T02940183
KRAP 112052Z 12008KT 10SM CLR 30/17 A2987 RMK AO2 RAB12E25 SLP082 P0000 60000 T03000172 56013
KRAP 111952Z 10004KT 10SM CLR 27/17 A2988 RMK AO2 SLP092 T02720167
KRAP 111852Z 11010KT 10SM CLR 29/17 A2989 RMK AO2 SLP093 T02890167
KRAP 111752Z 11012KT 10SM CLR 28/17 A2991 RMK AO2 SLP102 T02780172 10278 20156 50003
KRAP 111652Z 11013KT 10SM CLR 27/17 A2991 RMK AO2 SLP103 T02670172
KRAP 111552Z 12009KT 10SM CLR 26/17 A2990 RMK AO2 SLP099 T02610172
KRAP 111452Z 09005KT 10SM CLR 23/17 A2990 RMK AO2 SLP101 T02330167 57001
KRAP 111352Z 00000KT 10SM CLR 21/16 A2990 RMK AO2 SLP100 T02060156
KRAP 111252Z 12003KT 10SM CLR 17/14 A2991 RMK AO2 SLP102 T01720144
KRAP 111152Z AUTO 00000KT 10SM CLR 16/13 A2991 RMK AO2 SLP101 T01560133 10211 20156 56001
KRAP 111052Z AUTO 00000KT 10SM CLR 18/14 A2991 RMK AO2 SLP100 T01780139
KRAP 110952Z AUTO 14007KT 10SM CLR 19/14 A2990 RMK AO2 SLP096 T01940144
KRAP 110852Z AUTO 16011KT 10SM CLR 21/14 A2991 RMK AO2 SLP099 T02060139 56010
KRAP 110752Z AUTO 14008KT 10SM CLR 18/12 A2992 RMK AO2 SLP107 T01780122
KRAP 110652Z AUTO 15006KT 10SM CLR 18/12 A2992 RMK AO2 SLP108 T01830122 402890117
KRAP 110552Z AUTO 15007KT 10SM CLR 18/12 A2994 RMK AO2 SLP115 T01830117 10289 20183 50001
KRAP 110452Z AUTO 17006KT 10SM CLR 18/12 A2995 RMK AO2 SLP119 T01830117
KRAP 110352Z 16006KT 10SM CLR 19/11 A2995 RMK AO2 SLP121 T01890111
KRAP 110252Z 14006KT 10SM CLR 20/11 A2994 RMK AO2 SLP118 T02000111 55003
KRAP 110152Z 13009KT 10SM CLR 23/11 A2993 RMK AO2 SLP114 T02280111
KRAP 110052Z 15010KT 10SM CLR 27/09 A2994 RMK AO2 SLP113 T02720094
KRAP 102352Z 15013KT 10SM CLR 28/09 A2995 RMK AO2 SLP120 T02830094 10289 20239 57022
KRAP 102252Z 16014G23KT 10SM CLR 29/08 A2997 RMK AO2 SLP128 T02890083
KRAP 102152Z 16012KT 10SM CLR 28/08 A3000 RMK AO2 SLP134 T02830083
KRAP 102052Z 17015G26KT 10SM CLR 28/08 A3002 RMK AO2 PK WND 14026/2047 SLP142 T02780078 58025
KRAP 101952Z 17011G21KT 10SM CLR 27/08 A3006 RMK AO2 PK WND 15026/1935 SLP154 T02670078
KRAP 101852Z 14015G21KT 10SM CLR 26/08 A3008 RMK AO2 SLP164 T02560078